Etusivu
METAR-TAF:

METAR-TAF

Lentoasemat :

El Paso, Texas, Yhdysvallat

Leveyspiiri: 31-48-40N, Pituuspiiri: 106-22-33W, korkeus merenpinnasta: 1206 m

Tämänhetkinen sää

Tämä raportti tehtiin 28 minuuttia sitten, kello 21.51 UTC
tyyntä
Lämpötila 17°C
Kosteus 23%
Ilmanpaine 1017 hPa
Näkyvyys: 16.1 km
Muutamia pilviä 25000 ft:n korkeudessa

METAR: KELP 242151Z 00000KT 10SM FEW250 17/M04 A3002 RMK AO2 SLP136 T01721039

Aika: 16:19 (22:19 UTC)

Sääennuste

Tämä raportti tehtiin 4 tuntia ja 59 minuuttia sitten, kello 17.20 UTC
Ennuste voimassa 24. päivästä klo 18 UTC - 25. päivään klo 18 UTC
Tuuli 5 kn eri suunnista
Näkyvyys: 10 km
Muutamia pilviä 30000 ft:n korkeudessa
From 25. päivästä klo 0600 UTC
Tuuli 3 kn eri suunnista
Näkyvyys: 10 km
Hajanaisia pilviä 25000 ft:n korkeudessa

TAF: KELP 241720Z 2418/2518 VRB05KT P6SM FEW300 FM250600 VRB03KT P6SM SCT250

Säähavainnot ja -ennusteet yli 4000 lentoasemalta (METAR- ja TAF-raportit).

Käytössä olevat sääasemat on merkitty karttaan keltaisilla ja punaisilla pisteillä.

Aseta hiiri pisteen päälle nähdäksesi sääaseman nimen.

Klikkaa sitten nähdäksesi säähavainnot ja -ennusteet.

Kartan vaihtaminen: klikkaa mustalla rastilla varustettuja vihreitä pisteitä, niin voit zoomata sisään; viivalla varustettua vihreää pistettä, niin voit zoomata ulos tai vihreitä nuolia, niin pääset viereisille kartoille.


METAR-TAF: